Time;durP1;ratioP1;P1;durP2;ratioP2;P2;SDS_P1;SDS_P2;PMS_P1;PMS_P2;Temp;Humidity;BMP_temperature;BMP_pressure;BME280_temperature;BME280_humidity;BME280_pressure;Samples;Min_cycle;Max_cycle;Signal;HPM_P1;HPM_P2
2024/01/27 00:01:23;;;;;;;;;;;3.50;99.90;;;;;;5044495;28;20326;-57
2024/01/27 00:03:50;;;;;;;;;;;3.50;99.90;;;;;;5039414;28;19923;-57
2024/01/27 00:06:15;;;;;;;;;;;3.50;99.90;;;;;;5040426;28;19924;-56
2024/01/27 00:08:41;;;;;;;;;;;3.50;99.90;;;;;;5043199;28;20284;-58
2024/01/27 00:11:06;;;;;;;;;;;3.40;99.90;;;;;;5042029;28;19925;-57
2024/01/27 00:13:32;;;;;;;;;;;3.40;99.90;;;;;;5040955;28;19917;-57
2024/01/27 00:15:57;;;;;;;;;;;3.40;99.90;;;;;;5041233;28;20339;-57
2024/01/27 00:18:23;;;;;;;;;;;3.40;99.90;;;;;;5037581;28;20564;-58
2024/01/27 00:20:49;;;;;;;;;;;3.50;99.90;;;;;;5044037;28;19928;-56
2024/01/27 00:23:14;;;;;;;;;;;3.40;99.90;;;;;;5040755;28;19921;-58
2024/01/27 00:25:40;;;;;;;;;;;3.30;99.90;;;;;;5038250;28;20019;-56
2024/01/27 00:28:05;;;;;;;;;;;3.40;99.90;;;;;;5041513;28;19921;-56
2024/01/27 00:30:31;;;;;;;;;;;3.40;99.90;;;;;;5039952;28;19955;-58
2024/01/27 00:32:56;;;;;;;;;;;3.40;99.90;;;;;;5039125;28;20357;-56
2024/01/27 00:35:22;;;;;;;;;;;3.40;99.90;;;;;;5042080;28;19927;-57
2024/01/27 00:37:47;;;;;;;;;;;3.40;99.90;;;;;;5017842;28;19925;-58
2024/01/27 00:40:14;;;;;;;;;;;3.40;99.90;;;;;;5039036;28;20596;-57
2024/01/27 00:42:40;;;;;;;;;;;3.40;99.90;;;;;;5036328;28;20298;-58
2024/01/27 00:45:06;;;;;;;;;;;3.40;99.90;;;;;;5037502;28;20003;-58
2024/01/27 00:47:31;;;;;;;;;;;3.40;99.90;;;;;;5037248;28;19913;-56
2024/01/27 00:49:57;;;;;;;;;;;3.40;99.90;;;;;;5041889;28;19965;-57
2024/01/27 00:52:23;;;;;;;;;;;3.50;99.90;;;;;;5038114;28;22768;-56
2024/01/27 00:54:48;;;;;;;;;;;3.40;99.90;;;;;;5039095;28;19916;-57
2024/01/27 00:57:14;;;;;;;;;;;3.40;99.90;;;;;;5038489;28;20316;-58
2024/01/27 00:59:40;;;;;;;;;;;3.40;99.90;;;;;;5042775;28;19985;-57
2024/01/27 01:02:06;;;;;;;;;;;3.40;99.90;;;;;;5046385;28;20197;-57
2024/01/27 01:04:32;;;;;;;;;;;3.40;99.90;;;;;;5044510;28;19920;-58
2024/01/27 01:06:57;;;;;;;;;;;3.40;99.90;;;;;;5037493;28;20659;-57
2024/01/27 01:09:23;;;;;;;;;;;3.40;99.90;;;;;;5046579;28;19916;-57
2024/01/27 01:11:48;;;;;;;;;;;3.50;99.90;;;;;;5048796;28;19920;-56
2024/01/27 01:14:14;;;;;;;;;;;3.40;99.90;;;;;;5043665;28;19964;-57
2024/01/27 01:16:40;;;;;;;;;;;3.30;99.90;;;;;;5043508;28;19920;-57
2024/01/27 01:19:05;;;;;;;;;;;3.30;99.90;;;;;;5041011;28;19923;-57
2024/01/27 01:21:31;;;;;;;;;;;3.40;99.90;;;;;;5043191;28;19933;-58
2024/01/27 01:23:56;;;;;;;;;;;3.30;99.90;;;;;;5052409;28;19921;-57
2024/01/27 01:26:22;;;;;;;;;;;3.30;99.90;;;;;;5052961;28;19920;-56
2024/01/27 01:28:47;;;;;;;;;;;3.30;99.90;;;;;;5050909;28;20437;-57
2024/01/27 01:31:13;;;;;;;;;;;3.30;99.90;;;;;;5032339;28;20376;-56
2024/01/27 01:33:38;;;;;;;;;;;3.30;99.90;;;;;;5050278;28;19920;-56
2024/01/27 01:36:04;;;;;;;;;;;3.30;99.90;;;;;;5043294;28;19928;-58
2024/01/27 01:38:30;;;;;;;;;;;3.30;99.90;;;;;;5039828;28;20039;-57
2024/01/27 01:40:55;;;;;;;;;;;3.30;99.90;;;;;;5038803;28;20574;-57
2024/01/27 01:43:21;;;;;;;;;;;3.30;99.90;;;;;;5038106;28;19927;-56
2024/01/27 01:45:46;;;;;;;;;;;3.30;99.90;;;;;;5038924;28;19983;-56
2024/01/27 01:48:12;;;;;;;;;;;3.30;99.90;;;;;;5038448;28;19921;-56
2024/01/27 01:50:38;;;;;;;;;;;3.30;99.90;;;;;;5042201;28;19921;-58
2024/01/27 01:53:04;;;;;;;;;;;3.30;99.90;;;;;;5037151;28;20287;-57
2024/01/27 01:55:29;;;;;;;;;;;3.30;99.90;;;;;;5035592;28;20006;-57
2024/01/27 01:57:55;;;;;;;;;;;3.40;99.90;;;;;;5015369;28;19950;-56
2024/01/27 02:00:20;;;;;;;;;;;3.30;99.90;;;;;;5041152;28;19924;-58
2024/01/27 02:02:46;;;;;;;;;;;3.30;99.90;;;;;;5040216;28;20023;-56
2024/01/27 02:05:12;;;;;;;;;;;3.30;99.90;;;;;;5040429;28;19978;-58
2024/01/27 02:07:38;;;;;;;;;;;3.30;99.90;;;;;;5019991;28;19994;-58
2024/01/27 02:10:03;;;;;;;;;;;3.30;99.90;;;;;;5039801;28;19920;-57
2024/01/27 02:12:29;;;;;;;;;;;3.40;99.90;;;;;;5038667;28;19952;-57
2024/01/27 02:14:54;;;;;;;;;;;3.30;99.90;;;;;;5018656;28;19963;-57
2024/01/27 02:17:20;;;;;;;;;;;3.30;99.90;;;;;;5038371;28;19925;-57
2024/01/27 02:19:45;;;;;;;;;;;3.30;99.90;;;;;;5036578;28;19936;-56
2024/01/27 02:22:11;;;;;;;;;;;3.30;99.90;;;;;;5047427;28;19917;-57
2024/01/27 02:24:36;;;;;;;;;;;3.30;99.90;;;;;;5034203;28;19970;-57
2024/01/27 02:27:02;;;;;;;;;;;3.30;99.90;;;;;;5043002;28;20511;-55
2024/01/27 02:29:28;;;;;;;;;;;3.30;99.90;;;;;;5041748;28;20391;-56
2024/01/27 02:31:54;;;;;;;;;;;3.30;99.90;;;;;;5037140;28;19958;-56
2024/01/27 02:34:19;;;;;;;;;;;3.30;99.90;;;;;;5035347;28;20332;-57
2024/01/27 02:36:45;;;;;;;;;;;3.30;99.90;;;;;;5035859;28;20028;-57
2024/01/27 02:39:10;;;;;;;;;;;3.30;99.90;;;;;;5041211;28;19928;-57
2024/01/27 02:41:38;;;;;;;;;;;3.30;99.90;;;;;;5036924;28;19963;-57
2024/01/27 02:44:04;;;;;;;;;;;3.30;99.90;;;;;;5039710;28;20332;-57
2024/01/27 02:46:30;;;;;;;;;;;3.30;99.90;;;;;;5035187;28;19916;-57
2024/01/27 02:48:56;;;;;;;;;;;3.30;99.90;;;;;;5034257;28;22001;-57
2024/01/27 02:51:21;;;;;;;;;;;3.30;99.90;;;;;;5038228;28;19982;-57
2024/01/27 02:53:47;;;;;;;;;;;3.30;99.90;;;;;;5041683;28;19946;-57
2024/01/27 02:56:12;;;;;;;;;;;3.30;99.90;;;;;;5034725;28;19956;-57
2024/01/27 02:58:38;;;;;;;;;;;3.30;99.90;;;;;;5036699;28;20363;-57
2024/01/27 03:01:03;;;;;;;;;;;3.30;99.90;;;;;;5041876;28;19927;-58
2024/01/27 03:03:29;;;;;;;;;;;3.30;99.90;;;;;;5038520;28;19920;-57
2024/01/27 03:05:55;;;;;;;;;;;3.30;99.90;;;;;;5039984;28;20394;-58
2024/01/27 03:08:21;;;;;;;;;;;3.30;99.90;;;;;;5034345;28;19921;-58
2024/01/27 03:10:46;;;;;;;;;;;3.30;99.90;;;;;;5027972;28;19917;-56
2024/01/27 03:13:12;;;;;;;;;;;3.20;99.90;;;;;;5040888;28;19925;-57
2024/01/27 03:15:37;;;;;;;;;;;3.20;99.90;;;;;;5039812;28;20360;-56
2024/01/27 03:18:03;;;;;;;;;;;3.20;99.90;;;;;;5045389;28;19970;-58
2024/01/27 03:20:31;;;;;;;;;;;3.10;99.90;;;;;;5036770;28;20039;-56
2024/01/27 03:22:56;;;;;;;;;;;3.10;99.90;;;;;;5033289;28;20413;-57
2024/01/27 03:25:22;;;;;;;;;;;3.20;99.90;;;;;;5038064;28;19917;-56
2024/01/27 03:27:48;;;;;;;;;;;3.10;99.90;;;;;;5035642;28;19928;-56
2024/01/27 03:30:13;;;;;;;;;;;3.10;99.90;;;;;;5037199;28;19936;-55
2024/01/27 03:32:40;;;;;;;;;;;3.10;99.90;;;;;;5033179;28;19928;-57
2024/01/27 03:35:06;;;;;;;;;;;3.20;99.90;;;;;;5028190;28;20290;-57
2024/01/27 03:37:33;;;;;;;;;;;3.10;99.90;;;;;;5031248;28;19925;-58
2024/01/27 03:39:58;;;;;;;;;;;3.10;99.90;;;;;;5032569;28;21494;-56
2024/01/27 03:42:24;;;;;;;;;;;3.00;99.90;;;;;;5042842;28;20046;-58
2024/01/27 03:44:49;;;;;;;;;;;3.10;99.90;;;;;;5033772;28;19921;-57
2024/01/27 03:47:15;;;;;;;;;;;3.00;99.90;;;;;;5032357;28;20040;-57
2024/01/27 03:49:40;;;;;;;;;;;3.10;99.90;;;;;;5017297;28;19916;-57
2024/01/27 03:52:06;;;;;;;;;;;3.10;99.90;;;;;;5033437;28;19954;-56
2024/01/27 03:54:31;;;;;;;;;;;3.10;99.90;;;;;;5036880;28;19943;-57
2024/01/27 03:56:57;;;;;;;;;;;3.00;99.90;;;;;;5032743;28;20019;-58
2024/01/27 03:59:23;;;;;;;;;;;3.00;99.90;;;;;;5036652;28;19917;-57
2024/01/27 04:01:48;;;;;;;;;;;3.00;99.90;;;;;;5039203;28;19928;-57
2024/01/27 04:04:14;;;;;;;;;;;3.00;99.90;;;;;;5035272;28;19948;-56
2024/01/27 04:06:40;;;;;;;;;;;3.00;99.90;;;;;;5035330;28;19929;-56
2024/01/27 04:09:08;;;;;;;;;;;3.00;99.90;;;;;;5041148;28;19928;-58
2024/01/27 04:11:36;;;;;;;;;;;3.00;99.90;;;;;;5040576;28;20003;-58
2024/01/27 04:14:02;;;;;;;;;;;3.00;99.90;;;;;;5024052;28;19928;-57
2024/01/27 04:16:27;;;;;;;;;;;3.00;99.90;;;;;;5044880;28;19917;-57
2024/01/27 04:18:53;;;;;;;;;;;3.00;99.90;;;;;;5039518;28;19921;-57
2024/01/27 04:21:18;;;;;;;;;;;3.00;99.90;;;;;;5046501;28;19927;-57
2024/01/27 04:23:44;;;;;;;;;;;3.00;99.90;;;;;;5024831;28;19960;-57
2024/01/27 04:26:10;;;;;;;;;;;3.00;99.90;;;;;;5041518;28;19921;-57
2024/01/27 04:28:36;;;;;;;;;;;3.00;99.90;;;;;;5039901;28;20419;-57
2024/01/27 04:31:02;;;;;;;;;;;2.90;99.90;;;;;;5040330;28;20018;-57
2024/01/27 04:33:27;;;;;;;;;;;2.90;99.90;;;;;;5042663;28;19920;-57
2024/01/27 04:35:53;;;;;;;;;;;2.90;99.90;;;;;;5043278;28;19924;-57
2024/01/27 04:38:18;;;;;;;;;;;2.90;99.90;;;;;;5040240;28;19975;-57
2024/01/27 04:40:44;;;;;;;;;;;2.90;99.90;;;;;;5042533;28;19931;-57
2024/01/27 04:43:09;;;;;;;;;;;3.00;99.90;;;;;;5041331;28;19929;-57
2024/01/27 04:45:35;;;;;;;;;;;2.90;99.90;;;;;;5042983;28;20381;-57
2024/01/27 04:48:01;;;;;;;;;;;2.90;99.90;;;;;;5038694;28;20303;-57
2024/01/27 04:50:27;;;;;;;;;;;3.00;99.90;;;;;;5036107;28;19969;-57
2024/01/27 04:52:52;;;;;;;;;;;3.00;99.90;;;;;;5040473;28;20299;-58
2024/01/27 04:55:18;;;;;;;;;;;2.90;99.90;;;;;;5039584;28;20750;-58
2024/01/27 04:57:43;;;;;;;;;;;2.90;99.90;;;;;;5025352;28;20510;-58
2024/01/27 05:00:12;;;;;;;;;;;2.90;99.90;;;;;;5053191;28;20263;-57
2024/01/27 05:02:41;;;;;;;;;;;2.90;99.90;;;;;;5041934;28;19936;-57
2024/01/27 05:05:07;;;;;;;;;;;2.90;99.90;;;;;;5041248;28;20347;-57
2024/01/27 05:07:33;;;;;;;;;;;2.90;99.90;;;;;;5042325;28;19924;-57
2024/01/27 05:09:58;;;;;;;;;;;2.90;99.90;;;;;;5035030;28;19920;-57
2024/01/27 05:12:24;;;;;;;;;;;2.90;99.90;;;;;;5046375;28;19942;-57
2024/01/27 05:14:49;;;;;;;;;;;2.90;99.90;;;;;;5041964;28;20298;-58
2024/01/27 05:17:15;;;;;;;;;;;2.90;99.90;;;;;;5044676;28;19917;-58
2024/01/27 05:19:40;;;;;;;;;;;2.90;99.90;;;;;;5043399;28;19916;-57
2024/01/27 05:22:06;;;;;;;;;;;2.90;99.90;;;;;;5022324;28;20033;-58
2024/01/27 05:24:31;;;;;;;;;;;2.90;99.90;;;;;;5059763;28;20142;-57
2024/01/27 05:26:57;;;;;;;;;;;2.90;99.90;;;;;;5061225;28;19985;-57
2024/01/27 05:29:22;;;;;;;;;;;2.90;99.90;;;;;;5053971;28;19920;-57
2024/01/27 05:31:48;;;;;;;;;;;2.90;99.90;;;;;;5045921;28;20361;-56
2024/01/27 05:34:14;;;;;;;;;;;2.80;99.90;;;;;;5040815;28;20018;-57
2024/01/27 05:36:40;;;;;;;;;;;2.80;99.90;;;;;;5040606;28;19927;-57
2024/01/27 05:39:06;;;;;;;;;;;2.90;99.90;;;;;;5028906;28;19951;-58
2024/01/27 05:41:32;;;;;;;;;;;2.80;99.90;;;;;;5043256;28;19994;-56
2024/01/27 05:43:58;;;;;;;;;;;2.70;99.90;;;;;;5042377;28;20398;-56
2024/01/27 05:46:26;;;;;;;;;;;2.70;99.90;;;;;;5046620;28;20017;-57
2024/01/27 05:48:53;;;;;;;;;;;2.70;99.90;;;;;;5045133;28;19978;-56
2024/01/27 05:51:23;;;;;;;;;;;2.60;99.90;;;;;;5043901;28;19928;-58
2024/01/27 05:53:48;;;;;;;;;;;2.60;99.90;;;;;;5018309;28;19967;-58
2024/01/27 05:56:14;;;;;;;;;;;2.60;99.90;;;;;;5041135;28;20026;-57
2024/01/27 05:58:40;;;;;;;;;;;2.60;99.90;;;;;;5042634;28;20258;-57
2024/01/27 06:01:05;;;;;;;;;;;2.50;99.90;;;;;;5043366;28;19936;-56
2024/01/27 06:03:31;;;;;;;;;;;2.50;99.90;;;;;;5047918;28;19925;-57
2024/01/27 06:05:57;;;;;;;;;;;2.50;99.90;;;;;;5039844;28;19943;-57
2024/01/27 06:08:22;;;;;;;;;;;2.50;99.90;;;;;;5043496;28;20275;-58
2024/01/27 06:10:48;;;;;;;;;;;2.50;99.90;;;;;;5041924;28;19925;-57
2024/01/27 06:13:13;;;;;;;;;;;2.40;99.90;;;;;;5043296;28;19928;-57
2024/01/27 06:15:39;;;;;;;;;;;2.40;99.90;;;;;;5044992;28;19971;-57
2024/01/27 06:18:05;;;;;;;;;;;2.40;99.90;;;;;;5040484;28;20298;-56
2024/01/27 06:20:31;;;;;;;;;;;2.40;99.90;;;;;;5040158;28;20289;-57
2024/01/27 06:22:57;;;;;;;;;;;2.40;99.90;;;;;;5032917;28;19916;-58
2024/01/27 06:25:23;;;;;;;;;;;2.40;99.90;;;;;;5026215;28;20181;-58
2024/01/27 06:27:48;;;;;;;;;;;2.40;99.90;;;;;;5045887;28;19925;-56
2024/01/27 06:30:15;;;;;;;;;;;2.40;99.90;;;;;;5037164;28;19924;-57
2024/01/27 06:32:40;;;;;;;;;;;2.40;99.90;;;;;;5038712;28;19931;-56
2024/01/27 06:35:07;;;;;;;;;;;2.40;99.90;;;;;;5041656;28;20354;-57
2024/01/27 06:37:32;;;;;;;;;;;2.40;99.90;;;;;;5036323;28;20722;-58
2024/01/27 06:39:58;;;;;;;;;;;2.30;99.90;;;;;;5040253;28;20019;-57
2024/01/27 06:42:23;;;;;;;;;;;2.40;99.90;;;;;;5036754;28;19921;-58
2024/01/27 06:44:49;;;;;;;;;;;2.40;99.90;;;;;;5036496;28;19921;-55
2024/01/27 06:47:15;;;;;;;;;;;2.40;99.90;;;;;;5040334;28;20015;-56
2024/01/27 06:49:40;;;;;;;;;;;2.40;99.90;;;;;;5035960;28;19921;-57
2024/01/27 06:52:05;;;;;;;;;;;2.40;99.90;;;;;;5039719;28;19917;-57
2024/01/27 06:54:31;;;;;;;;;;;2.40;99.90;;;;;;5042782;28;19920;-57
2024/01/27 06:56:59;;;;;;;;;;;2.40;99.90;;;;;;5040026;28;19964;-57
2024/01/27 06:59:24;;;;;;;;;;;2.40;99.90;;;;;;5037723;28;19920;-57
2024/01/27 07:01:50;;;;;;;;;;;2.40;99.90;;;;;;5045277;28;19955;-58
2024/01/27 07:04:15;;;;;;;;;;;2.40;99.90;;;;;;5040508;28;20377;-57
2024/01/27 07:06:41;;;;;;;;;;;2.40;99.90;;;;;;5041202;28;19916;-57
2024/01/27 07:09:06;;;;;;;;;;;2.40;99.90;;;;;;5033243;28;20027;-57
2024/01/27 07:11:32;;;;;;;;;;;2.30;99.90;;;;;;5040516;28;19968;-56
2024/01/27 07:13:58;;;;;;;;;;;2.30;99.90;;;;;;5033774;28;20030;-57
2024/01/27 07:16:24;;;;;;;;;;;2.30;99.90;;;;;;5040222;28;19921;-57
2024/01/27 07:18:50;;;;;;;;;;;2.30;99.90;;;;;;5040850;28;20574;-57
2024/01/27 07:21:16;;;;;;;;;;;2.30;99.90;;;;;;5044189;28;20015;-57
2024/01/27 07:23:43;;;;;;;;;;;2.30;99.90;;;;;;5042195;28;19921;-57
2024/01/27 07:26:11;;;;;;;;;;;2.30;99.90;;;;;;5046158;28;20529;-56
2024/01/27 07:28:37;;;;;;;;;;;2.30;99.90;;;;;;5045432;28;20387;-56
2024/01/27 07:31:03;;;;;;;;;;;2.20;99.90;;;;;;5050473;28;19942;-57
2024/01/27 07:33:29;;;;;;;;;;;2.20;99.90;;;;;;5050880;28;19951;-56
2024/01/27 07:35:54;;;;;;;;;;;2.20;99.90;;;;;;5047790;28;20019;-58
2024/01/27 07:38:20;;;;;;;;;;;2.20;99.90;;;;;;5046322;28;19975;-56
2024/01/27 07:40:45;;;;;;;;;;;2.20;99.90;;;;;;5047934;28;20882;-57
2024/01/27 07:43:11;;;;;;;;;;;2.20;99.90;;;;;;5053716;28;19929;-57
2024/01/27 07:45:37;;;;;;;;;;;2.20;99.90;;;;;;5056706;28;20130;-57
2024/01/27 07:48:03;;;;;;;;;;;2.20;99.90;;;;;;5052582;28;19963;-57
2024/01/27 07:50:28;;;;;;;;;;;2.20;99.90;;;;;;5048130;28;19925;-56
2024/01/27 07:52:54;;;;;;;;;;;2.20;99.90;;;;;;5051620;28;19924;-57
2024/01/27 07:55:19;;;;;;;;;;;2.30;99.90;;;;;;5043658;28;19927;-57
2024/01/27 07:57:45;;;;;;;;;;;2.30;99.90;;;;;;5042626;28;20019;-56
2024/01/27 08:00:11;;;;;;;;;;;2.30;99.90;;;;;;5041405;28;20294;-56
2024/01/27 08:02:36;;;;;;;;;;;2.30;99.90;;;;;;5043349;28;20390;-56
2024/01/27 08:05:06;;;;;;;;;;;2.30;99.90;;;;;;5044127;28;20431;-58
2024/01/27 08:07:32;;;;;;;;;;;2.40;99.90;;;;;;5045782;28;19921;-56
2024/01/27 08:09:57;;;;;;;;;;;2.40;99.90;;;;;;5045702;28;19920;-58
2024/01/27 08:12:23;;;;;;;;;;;2.40;99.90;;;;;;5048707;28;19916;-57
2024/01/27 08:14:48;;;;;;;;;;;2.40;99.90;;;;;;5046004;28;19947;-56
2024/01/27 08:17:14;;;;;;;;;;;2.40;99.90;;;;;;5044349;28;19938;-56
2024/01/27 08:19:40;;;;;;;;;;;2.50;99.90;;;;;;5044261;28;20011;-58
2024/01/27 08:22:05;;;;;;;;;;;2.50;99.90;;;;;;5043802;28;19924;-56
2024/01/27 08:24:31;;;;;;;;;;;2.50;99.90;;;;;;5047456;28;19912;-56
2024/01/27 08:26:57;;;;;;;;;;;2.60;99.90;;;;;;5041777;28;19991;-58
2024/01/27 08:29:22;;;;;;;;;;;2.60;99.90;;;;;;5040911;28;20022;-57
2024/01/27 08:31:48;;;;;;;;;;;2.70;99.90;;;;;;5038754;28;20047;-57
2024/01/27 08:34:14;;;;;;;;;;;2.70;99.90;;;;;;5046219;28;19924;-58
2024/01/27 08:36:39;;;;;;;;;;;2.80;99.90;;;;;;5036844;28;19927;-56
2024/01/27 08:39:07;;;;;;;;;;;2.80;99.90;;;;;;5042673;28;20363;-57
2024/01/27 08:41:33;;;;;;;;;;;2.80;99.90;;;;;;5038694;28;19927;-57
2024/01/27 08:43:58;;;;;;;;;;;2.90;99.90;;;;;;5041038;28;20387;-57
2024/01/27 08:46:24;;;;;;;;;;;3.00;99.90;;;;;;5042237;28;20375;-57
2024/01/27 08:48:49;;;;;;;;;;;3.00;99.90;;;;;;5043572;28;20379;-57
2024/01/27 08:51:16;;;;;;;;;;;3.10;99.90;;;;;;5023056;28;19921;-56
2024/01/27 08:53:48;;;;;;;;;;;3.10;99.90;;;;;;5041085;28;19921;-58
2024/01/27 08:56:17;;;;;;;;;;;3.20;99.90;;;;;;5039843;28;19921;-57
2024/01/27 08:58:43;;;;;;;;;;;3.20;99.90;;;;;;5050158;28;20386;-57
2024/01/27 09:01:09;;;;;;;;;;;3.30;99.90;;;;;;5052508;28;20011;-57
2024/01/27 09:03:35;;;;;;;;;;;3.40;99.90;;;;;;5045458;28;20334;-58
2024/01/27 09:06:01;;;;;;;;;;;3.40;99.90;;;;;;5039841;28;19925;-58
2024/01/27 09:08:26;;;;;;;;;;;3.40;99.90;;;;;;5037032;28;19916;-57
2024/01/27 09:10:52;;;;;;;;;;;3.50;99.90;;;;;;5041455;28;19929;-57
2024/01/27 09:13:17;;;;;;;;;;;3.50;99.90;;;;;;5041816;28;19931;-57
2024/01/27 09:15:43;;;;;;;;;;;3.60;99.90;;;;;;5039825;28;20279;-57
2024/01/27 09:18:08;;;;;;;;;;;3.70;99.90;;;;;;5038408;28;19950;-57
2024/01/27 09:20:34;;;;;;;;;;;3.80;99.90;;;;;;5022460;28;20031;-57
2024/01/27 09:22:59;;;;;;;;;;;3.80;99.90;;;;;;5036655;28;20437;-57
2024/01/27 09:25:26;;;;;;;;;;;3.90;99.90;;;;;;5042796;28;20252;-57
2024/01/27 09:27:52;;;;;;;;;;;4.00;99.90;;;;;;5042599;28;20283;-58
2024/01/27 09:30:18;;;;;;;;;;;4.10;99.90;;;;;;5033359;28;20479;-55
2024/01/27 09:32:43;;;;;;;;;;;4.20;99.90;;;;;;5037853;28;19920;-57
2024/01/27 09:35:09;;;;;;;;;;;4.30;99.90;;;;;;5038921;28;19966;-57
2024/01/27 09:37:34;;;;;;;;;;;4.40;99.90;;;;;;5041077;28;20378;-57
2024/01/27 09:40:02;;;;;;;;;;;4.50;99.90;;;;;;5043125;28;19987;-56
2024/01/27 09:42:28;;;;;;;;;;;4.60;99.90;;;;;;5037433;28;19972;-57
2024/01/27 09:44:54;;;;;;;;;;;4.70;99.90;;;;;;5040305;28;20071;-57
2024/01/27 09:47:21;;;;;;;;;;;4.80;99.90;;;;;;5037791;28;19977;-57
2024/01/27 09:49:47;;;;;;;;;;;5.00;99.90;;;;;;5021248;28;19913;-58
2024/01/27 09:52:13;;;;;;;;;;;5.10;99.90;;;;;;5038718;28;19927;-56
2024/01/27 09:54:40;;;;;;;;;;;5.20;99.90;;;;;;5041533;28;20383;-56
2024/01/27 09:57:06;;;;;;;;;;;5.30;99.90;;;;;;5036495;28;19917;-56
2024/01/27 09:59:33;;;;;;;;;;;5.40;99.90;;;;;;5016594;28;20393;-57
2024/01/27 10:01:59;;;;;;;;;;;5.50;99.90;;;;;;5039217;28;19920;-57
2024/01/27 10:04:25;;;;;;;;;;;5.50;99.90;;;;;;5040589;28;19925;-57
2024/01/27 10:06:50;;;;;;;;;;;5.70;99.90;;;;;;5035862;28;19979;-57
2024/01/27 10:09:16;;;;;;;;;;;5.80;99.90;;;;;;5040247;28;19936;-55
2024/01/27 10:11:45;;;;;;;;;;;5.80;99.90;;;;;;5034334;28;20971;-56
2024/01/27 10:14:10;;;;;;;;;;;5.90;99.90;;;;;;5039054;28;19924;-58
2024/01/27 10:16:42;;;;;;;;;;;6.00;99.90;;;;;;5037997;28;20299;-57
2024/01/27 10:19:12;;;;;;;;;;;6.10;99.90;;;;;;5036406;28;20579;-57
2024/01/27 10:21:37;;;;;;;;;;;6.20;99.90;;;;;;5033806;28;19971;-56
2024/01/27 10:24:06;;;;;;;;;;;6.20;99.90;;;;;;5044050;28;20385;-57
2024/01/27 10:26:32;;;;;;;;;;;6.30;99.90;;;;;;5051294;28;19920;-56
2024/01/27 10:28:58;;;;;;;;;;;6.30;99.90;;;;;;5044413;28;19939;-58
2024/01/27 10:31:30;;;;;;;;;;;6.40;99.90;;;;;;5044348;28;19921;-57
2024/01/27 10:33:57;;;;;;;;;;;6.50;99.90;;;;;;5048191;28;19924;-57
2024/01/27 10:36:23;;;;;;;;;;;6.60;99.90;;;;;;5047202;28;19995;-57
2024/01/27 10:38:48;;;;;;;;;;;6.70;99.90;;;;;;5035495;28;19923;-57
2024/01/27 10:41:19;;;;;;;;;;;6.80;99.90;;;;;;5039778;28;19967;-58
2024/01/27 10:43:45;;;;;;;;;;;6.90;99.90;;;;;;5038342;28;19916;-57
2024/01/27 10:46:12;;;;;;;;;;;7.00;99.90;;;;;;5039349;28;19979;-57
2024/01/27 10:48:39;;;;;;;;;;;7.10;99.90;;;;;;5031769;28;19983;-56
2024/01/27 10:51:08;;;;;;;;;;;7.10;99.90;;;;;;5035423;28;19921;-57
2024/01/27 10:53:35;;;;;;;;;;;7.20;99.90;;;;;;5036592;28;20412;-57
2024/01/27 10:56:01;;;;;;;;;;;7.30;99.90;;;;;;5035404;28;19917;-57
2024/01/27 10:58:28;;;;;;;;;;;7.40;99.90;;;;;;5037828;28;19982;-57
2024/01/27 11:00:53;;;;;;;;;;;7.50;99.90;;;;;;5044134;28;19932;-57
2024/01/27 11:03:21;;;;;;;;;;;7.60;99.90;;;;;;5036941;28;19921;-58
2024/01/27 11:05:46;;;;;;;;;;;7.70;99.90;;;;;;5036679;28;20507;-58
2024/01/27 11:08:12;;;;;;;;;;;7.70;99.90;;;;;;5038598;28;19921;-58
2024/01/27 11:10:38;;;;;;;;;;;7.90;99.90;;;;;;5039220;28;20294;-57
2024/01/27 11:13:04;;;;;;;;;;;8.00;99.90;;;;;;5027231;28;19924;-57
2024/01/27 11:15:30;;;;;;;;;;;8.10;99.90;;;;;;5029624;28;20387;-58
2024/01/27 11:17:59;;;;;;;;;;;8.20;99.90;;;;;;5038443;28;19925;-58
2024/01/27 11:20:25;;;;;;;;;;;8.30;99.90;;;;;;5032388;28;20571;-58
2024/01/27 11:22:52;;;;;;;;;;;8.40;99.90;;;;;;5038210;28;19978;-57
2024/01/27 11:25:18;;;;;;;;;;;8.50;99.90;;;;;;5020506;28;19924;-58
2024/01/27 11:27:44;;;;;;;;;;;8.60;99.90;;;;;;5039374;28;20345;-58
2024/01/27 11:30:27;;;;;;;;;;;8.70;99.90;;;;;;5035459;28;19956;-58
2024/01/27 11:32:54;;;;;;;;;;;8.80;99.90;;;;;;5039316;28;20034;-58
2024/01/27 11:35:19;;;;;;;;;;;8.90;99.90;;;;;;5035111;28;20052;-57
2024/01/27 11:37:45;;;;;;;;;;;9.00;99.90;;;;;;5036650;28;19927;-58
2024/01/27 11:40:11;;;;;;;;;;;9.00;99.90;;;;;;5040118;28;19931;-58
2024/01/27 11:42:36;;;;;;;;;;;9.10;99.90;;;;;;5040235;28;19916;-58
2024/01/27 11:45:02;;;;;;;;;;;9.20;99.90;;;;;;5041609;28;19917;-58
2024/01/27 11:47:28;;;;;;;;;;;9.10;99.90;;;;;;5039300;28;20286;-58
2024/01/27 11:49:57;;;;;;;;;;;9.20;99.90;;;;;;5046555;28;20368;-58
2024/01/27 11:52:27;;;;;;;;;;;9.10;99.90;;;;;;5039908;28;20298;-57
2024/01/27 11:54:56;;;;;;;;;;;9.20;99.90;;;;;;5037863;28;20427;-58
2024/01/27 11:57:22;;;;;;;;;;;9.30;99.90;;;;;;5040270;28;20358;-58
2024/01/27 11:59:47;;;;;;;;;;;9.30;99.90;;;;;;5044601;28;19954;-58
2024/01/27 12:02:13;;;;;;;;;;;9.30;99.90;;;;;;5044241;28;20057;-56
2024/01/27 12:04:38;;;;;;;;;;;9.40;99.90;;;;;;5022946;28;19925;-58
2024/01/27 12:07:04;;;;;;;;;;;9.40;99.90;;;;;;5044994;28;19920;-58
2024/01/27 12:09:29;;;;;;;;;;;9.40;99.90;;;;;;5044276;28;19920;-58
2024/01/27 12:11:55;;;;;;;;;;;9.40;99.90;;;;;;5041036;28;19917;-58
2024/01/27 12:14:20;;;;;;;;;;;9.40;99.90;;;;;;5042385;28;19935;-57
2024/01/27 12:16:47;;;;;;;;;;;9.40;99.90;;;;;;5043653;28;19920;-58
2024/01/27 12:19:13;;;;;;;;;;;9.30;99.90;;;;;;5041883;28;20903;-58
2024/01/27 12:21:38;;;;;;;;;;;9.20;99.90;;;;;;5041236;28;19928;-57
2024/01/27 12:24:04;;;;;;;;;;;9.30;99.90;;;;;;5042800;28;20375;-60
2024/01/27 12:26:30;;;;;;;;;;;9.20;99.90;;;;;;5042037;28;19928;-58
2024/01/27 12:28:57;;;;;;;;;;;9.20;99.90;;;;;;5044846;28;19920;-58
2024/01/27 12:31:23;;;;;;;;;;;9.20;99.90;;;;;;5026605;28;20016;-58
2024/01/27 12:33:49;;;;;;;;;;;9.20;99.90;;;;;;5040060;28;20514;-57
2024/01/27 12:36:16;;;;;;;;;;;9.20;99.90;;;;;;5020732;28;19924;-58
2024/01/27 12:38:42;;;;;;;;;;;9.30;99.90;;;;;;5043241;28;20035;-57
2024/01/27 12:41:07;;;;;;;;;;;9.30;99.90;;;;;;5046470;28;20026;-58
2024/01/27 12:43:33;;;;;;;;;;;9.30;99.90;;;;;;5045067;28;21512;-57
2024/01/27 12:45:58;;;;;;;;;;;9.40;99.90;;;;;;5043181;28;19917;-58
2024/01/27 12:48:24;;;;;;;;;;;9.50;99.90;;;;;;5042207;28;19919;-56
2024/01/27 12:50:49;;;;;;;;;;;9.60;99.90;;;;;;5050975;28;19927;-55
2024/01/27 12:53:15;;;;;;;;;;;9.70;99.90;;;;;;5048307;28;19916;-56
2024/01/27 12:55:40;;;;;;;;;;;9.80;99.90;;;;;;5045594;28;19921;-57
2024/01/27 12:58:06;;;;;;;;;;;9.80;99.90;;;;;;5046361;28;20564;-57
2024/01/27 13:00:32;;;;;;;;;;;9.90;99.90;;;;;;5046262;28;19925;-56
2024/01/27 13:02:57;;;;;;;;;;;10.00;99.90;;;;;;5038521;28;19924;-55
2024/01/27 13:05:23;;;;;;;;;;;10.20;99.90;;;;;;5034527;28;19943;-56
2024/01/27 13:07:48;;;;;;;;;;;10.20;99.90;;;;;;5029401;28;20403;-57
2024/01/27 13:10:14;;;;;;;;;;;10.30;99.90;;;;;;5031726;28;20651;-55
2024/01/27 13:12:39;;;;;;;;;;;10.40;99.90;;;;;;5028330;28;19931;-55
2024/01/27 13:15:05;;;;;;;;;;;10.40;99.90;;;;;;5025663;28;20016;-55
2024/01/27 13:17:31;;;;;;;;;;;10.40;99.90;;;;;;5025555;28;19931;-56
2024/01/27 13:19:56;;;;;;;;;;;10.40;99.90;;;;;;5008959;28;19964;-56
2024/01/27 13:22:24;;;;;;;;;;;10.40;99.90;;;;;;5027719;28;20311;-57
2024/01/27 13:24:49;;;;;;;;;;;10.30;99.90;;;;;;5028358;28;20367;-56
2024/01/27 13:27:15;;;;;;;;;;;10.30;99.90;;;;;;5028820;28;19935;-55
2024/01/27 13:29:41;;;;;;;;;;;10.30;99.90;;;;;;5022455;28;20019;-56
2024/01/27 13:32:06;;;;;;;;;;;10.30;99.90;;;;;;5026588;28;19920;-55
2024/01/27 13:34:32;;;;;;;;;;;10.30;99.90;;;;;;5026938;28;20722;-57
2024/01/27 13:36:59;;;;;;;;;;;10.30;99.90;;;;;;5009551;28;19925;-55
2024/01/27 13:39:25;;;;;;;;;;;10.20;99.90;;;;;;5028454;28;19925;-56
2024/01/27 13:41:51;;;;;;;;;;;10.20;99.90;;;;;;5027011;28;19994;-55
2024/01/27 13:44:16;;;;;;;;;;;10.20;99.90;;;;;;5010835;28;19924;-57
2024/01/27 13:46:42;;;;;;;;;;;10.30;99.90;;;;;;5027213;28;20398;-54
2024/01/27 13:49:07;;;;;;;;;;;10.30;99.90;;;;;;5027865;28;19921;-56
2024/01/27 13:51:33;;;;;;;;;;;10.20;99.90;;;;;;5025367;28;20322;-56
2024/01/27 13:53:59;;;;;;;;;;;10.20;99.90;;;;;;5024305;28;19920;-57
2024/01/27 13:56:24;;;;;;;;;;;10.20;99.90;;;;;;5027791;28;19964;-57
2024/01/27 13:58:51;;;;;;;;;;;10.10;99.90;;;;;;5029464;28;19920;-55
2024/01/27 14:01:16;;;;;;;;;;;10.00;99.90;;;;;;5027613;28;20348;-55
2024/01/27 14:03:42;;;;;;;;;;;9.90;99.90;;;;;;5026787;28;19925;-57
2024/01/27 14:06:11;;;;;;;;;;;9.80;99.90;;;;;;5026764;28;19925;-55
2024/01/27 14:08:37;;;;;;;;;;;9.80;99.90;;;;;;5022037;28;20386;-56
2024/01/27 14:11:03;;;;;;;;;;;9.70;99.90;;;;;;5027821;28;20402;-56
2024/01/27 14:13:28;;;;;;;;;;;9.70;99.90;;;;;;5028398;28;19921;-56
2024/01/27 14:15:54;;;;;;;;;;;9.60;99.90;;;;;;5042033;28;20015;-56
2024/01/27 14:18:22;;;;;;;;;;;9.50;99.90;;;;;;5025762;28;20031;-57
2024/01/27 14:20:48;;;;;;;;;;;9.40;99.90;;;;;;5028208;28;20021;-56